Marion, OH

1:11 PM EDT on August 29, 2015 (GMT -0400)
Green Camp Fire Department | | Change Station
CLOSE
Current Station
Personal Weather Station
Location: Green Camp, OH
Elevation: 915 ft
Nearby Weather Stations

Elev 915 ft 40.53 °N, 83.21 °W | Updated 54 seconds ago

Partly Cloudy
Partly Cloudy
84.6 °F
Feels Like 85 °F
N
3.8
Wind Variable Wind from SSW
Gusts 16.8 mph

Today
High -- | Low -- °F
--% Chance of Precip.
Yesterday
High -- | Low -- °F
Precip. -- in
6:56 AM 8:10 PM
Full, 100% visible
Pressure 30.13 in
Visibility 9.0 miles
Clouds Clear
Heat Index 85 °F
Dew Point 63 °F
Humidity 48%
Rainfall 0.06 in
Snow Depth Not available.
UV 9 out of 12
Pollen 10.00 out of 12
Air Quality Not available.
Flu Activity Not available.
METAR KMNN 291653Z AUTO 22007KT 9SM CLR 26/18 A3014 RMK AO2 SLP202 T02610178 TSNO
Pressure 30.13 in
Visibility 9.0 miles
Clouds Clear
Heat Index 85 °F
Dew Point 63 °F
Humidity 48%
Rainfall 0.06 in
Snow Depth Not available.
UV 9 out of 12
Pollen 10.00 out of 12
Air Quality Not available.
Flu Activity Not available.
METAR KMNN 291653Z AUTO 22007KT 9SM CLR 26/18 A3014 RMK AO2 SLP202 T02610178 TSNO

10-Day Weather Forecast

×

Almanac

Astronomy

Aug. 29, 2015 Rise Set
Actual Time
Civil Twilight
Nautical Twilight
Astronomical Twilight
Moon
Length of Visible Light
Length of Day
Tomorrow will be .
, % of the Moon is Illuminated

Today's Extremes

State Highs State Lows

Community

WunderPhotos

Upload Photos

1,850,733 photos uploaded!

WunderBlogs® & News

Nearby

Air Quality

  Air Quality AQ Index Pollutant
Not available.

Snow Depth

Station Depth Elevation

Earthquake Activity

City Distance Mag. Time & Date
Minimum magnitude displayed is 2.5.

Coastal Water Temperatures

Place Temperature

Stations

Nearby Weather Stations

Station Location Temp. Windchill Dew Point Humidity Wind Precip. Elev Updated Type